Time;durP1;ratioP1;P1;durP2;ratioP2;P2;SDS_P1;SDS_P2;PMS_P1;PMS_P2;Temp;Humidity;BMP_temperature;BMP_pressure;BME280_temperature;BME280_humidity;BME280_pressure;Samples;Min_cycle;Max_cycle;Signal;HPM_P1;HPM_P2
2021/12/22 13:13:17;;;;;;;37.67;16.48;;;;;;;-144.43;100.00;64487.81;5160334;27;20900;-66
2021/12/22 13:15:51;;;;;;;35.20;16.40;;;;;;;-144.43;100.00;64487.81;5157773;27;20034;-65
2021/12/22 13:18:28;;;;;;;35.47;16.55;;;;;;;-144.43;100.00;64487.81;5155043;27;20490;-66
2021/12/22 13:20:56;;;;;;;40.13;16.15;;;;;;;-144.43;100.00;64487.81;5151812;27;20035;-66
2021/12/22 13:23:23;;;;;;;33.08;16.45;;;;;;;-144.43;100.00;64487.81;5133242;27;20027;-67
2021/12/22 13:25:51;;;;;;;34.08;16.90;;;;;;;-144.43;100.00;64487.81;5149719;27;20019;-65
2021/12/22 13:28:27;;;;;;;34.25;16.70;;;;;;;-144.43;100.00;64487.81;5141617;27;20392;-67
2021/12/22 13:30:55;;;;;;;36.45;17.30;;;;;;;-144.43;100.00;64487.81;5136906;27;20027;-64
2021/12/22 13:33:34;;;;;;;35.35;17.35;;;;;;;-144.43;100.00;64487.81;5153846;27;20313;-65
2021/12/22 13:36:03;;;;;;;32.33;15.98;;;;;;;-144.43;100.00;64487.81;5129762;27;20027;-65
2021/12/22 13:38:42;;;;;;;31.70;16.00;;;;;;;-144.43;100.00;64487.81;5124830;27;20039;-65
2021/12/22 13:41:13;;;;;;;31.55;16.35;;;;;;;-144.43;100.00;64487.81;5130358;27;20014;-64
2021/12/22 13:43:48;;;;;;;33.90;16.23;;;;;;;-144.43;100.00;64487.81;5144711;27;20023;-64
2021/12/22 13:46:21;;;;;;;31.88;16.65;;;;;;;-144.43;100.00;64487.81;5136578;27;20171;-66
2021/12/22 13:48:56;;;;;;;33.42;16.85;;;;;;;-144.43;100.00;64487.81;5154307;27;20019;-65
2021/12/22 13:51:42;;;;;;;31.17;15.88;;;;;;;-144.43;100.00;64487.81;5147199;27;20019;-65
2021/12/22 13:54:10;;;;;;;34.35;16.92;;;;;;;-144.43;100.00;64487.81;5153766;27;20050;-66
2021/12/22 13:56:36;;;;;;;30.50;15.50;;;;;;;-144.43;100.00;64487.81;5152438;27;20068;-66
2021/12/22 13:59:06;;;;;;;35.85;16.52;;;;;;;-144.43;100.00;64487.81;5152415;27;20015;-65
2021/12/22 14:01:35;;;;;;;33.28;16.25;;;;;;;-144.43;100.00;64487.81;5131986;27;20029;-66
2021/12/22 14:04:00;;;;;;;29.58;15.02;;;;;;;-144.43;100.00;64487.81;5142486;27;20604;-66
2021/12/22 14:06:36;;;;;;;33.38;15.77;;;;;;;-144.43;100.00;64487.81;5131385;27;20034;-66
2021/12/22 14:09:22;;;;;;;32.88;16.50;;;;;;;-144.43;100.00;64487.81;5139359;27;20051;-66
2021/12/22 14:11:56;;;;;;;33.40;16.60;;;;;;;-144.43;100.00;64487.81;5125474;28;20168;-67
2021/12/22 14:14:27;;;;;;;31.33;15.65;;;;;;;-144.43;100.00;64487.81;5127083;27;20497;-66
2021/12/22 14:17:19;;;;;;;36.38;16.88;;;;;;;-144.43;100.00;64487.81;5123456;27;20027;-67
2021/12/22 14:19:50;;;;;;;31.42;15.05;;;;;;;-144.43;100.00;64487.81;5112284;27;20031;-66
2021/12/22 14:22:18;;;;;;;32.97;17.88;;;;;;;-144.43;100.00;64487.81;5134674;27;20035;-66
2021/12/22 14:25:06;;;;;;;29.77;15.85;;;;;;;-144.43;100.00;64487.81;5124108;27;20098;-66
2021/12/22 14:27:42;;;;;;;33.95;16.48;;;;;;;-144.43;100.00;64487.81;5113643;27;20027;-66
2021/12/22 14:30:24;;;;;;;31.92;15.77;;;;;;;-144.43;100.00;64487.81;5113971;27;20059;-66
2021/12/22 14:33:01;;;;;;;32.53;16.27;;;;;;;-144.43;100.00;64487.81;5117250;27;20443;-66
2021/12/22 14:35:36;;;;;;;31.02;15.40;;;;;;;-144.43;100.00;64487.81;5119727;27;20024;-66
2021/12/22 14:38:04;;;;;;;32.80;15.85;;;;;;;-144.43;100.00;64487.81;5102796;28;20085;-67
2021/12/22 14:40:32;;;;;;;32.50;15.27;;;;;;;-144.43;100.00;64487.81;5114548;28;20601;-67
2021/12/22 14:43:04;;;;;;;34.95;16.52;;;;;;;-144.43;100.00;64487.81;5114312;28;20019;-66
2021/12/22 14:45:47;;;;;;;29.25;15.70;;;;;;;-144.43;100.00;64487.81;5113281;28;20022;-67
2021/12/22 14:48:20;;;;;;;;;;;;;;;-144.43;100.00;64487.81;5113856;28;20023;-67
2021/12/22 14:51:03;;;;;;;29.92;15.05;;;;;;;-144.43;100.00;64487.81;5096183;28;19911;-66
2021/12/22 14:53:35;;;;;;;32.10;15.43;;;;;;;-144.43;100.00;64487.81;5109339;28;20398;-67
2021/12/22 14:56:03;;;;;;;34.72;16.98;;;;;;;-144.43;100.00;64487.81;5113149;28;20024;-67
2021/12/22 14:58:29;;;;;;;31.10;15.07;;;;;;;-144.43;100.00;64487.81;5125668;27;20038;-66
2021/12/22 15:00:58;;;;;;;34.10;16.27;;;;;;;-144.43;100.00;64487.81;5134756;27;20019;-67
2021/12/22 15:03:31;;;;;;;33.97;16.52;;;;;;;-144.43;100.00;64487.81;5140942;27;20113;-67
2021/12/22 15:05:58;;;;;;;33.78;17.00;;;;;;;-144.43;100.00;64487.81;5118374;27;20034;-66
2021/12/22 15:08:25;;;;;;;33.17;15.68;;;;;;;-144.43;100.00;64487.81;5114069;28;20034;-67
2021/12/22 15:10:51;;;;;;;35.45;17.77;;;;;;;-144.43;100.00;64487.81;5100575;28;20508;-68
2021/12/22 15:13:17;;;;;;;37.28;17.25;;;;;;;-144.43;100.00;64487.81;5113550;28;20028;-67
2021/12/22 15:15:47;;;;;;;34.83;16.50;;;;;;;-144.43;100.00;64487.81;5113489;28;20024;-67
2021/12/22 15:18:12;;;;;;;35.60;16.83;;;;;;;-144.43;100.00;64487.81;5113328;28;20027;-66
2021/12/22 15:20:38;;;;;;;30.33;15.65;;;;;;;-144.43;100.00;64487.81;5113442;28;20509;-67
2021/12/22 15:23:03;;;;;;;31.33;15.95;;;;;;;-144.43;100.00;64487.81;5107962;28;20031;-67
2021/12/22 15:25:29;;;;;;;33.90;17.00;;;;;;;-144.43;100.00;64487.81;5100798;28;20020;-67
2021/12/22 15:27:54;;;;;;;34.00;15.88;;;;;;;-144.43;100.00;64487.81;5113272;28;20023;-67
2021/12/22 15:30:26;;;;;;;32.03;16.40;;;;;;;-144.43;100.00;64487.81;5113264;28;20030;-67
2021/12/22 15:32:52;;;;;;;32.97;16.70;;;;;;;-144.43;100.00;64487.81;5108120;28;20149;-67
2021/12/22 15:35:21;;;;;;;31.20;15.20;;;;;;;-144.43;100.00;64487.81;5111998;28;20060;-67
2021/12/22 15:37:47;;;;;;;32.88;15.55;;;;;;;-144.43;100.00;64487.81;5112965;28;20436;-66
2021/12/22 15:40:14;;;;;;;36.42;16.13;;;;;;;-144.43;100.00;64487.81;5113148;28;20024;-67
2021/12/22 15:42:41;;;;;;;35.83;16.10;;;;;;;-144.43;100.00;64487.81;5112958;28;20034;-66
2021/12/22 15:45:12;;;;;;;33.72;15.93;;;;;;;-144.43;100.00;64487.81;5113035;28;20055;-67
2021/12/22 15:47:39;;;;;;;31.02;14.70;;;;;;;-144.43;100.00;64487.81;5112602;28;20031;-66
2021/12/22 15:50:06;;;;;;;33.88;16.02;;;;;;;-144.43;100.00;64487.81;5114089;28;20019;-66
2021/12/22 15:52:31;;;;;;;31.75;15.18;;;;;;;-144.43;100.00;64487.81;5108873;28;20382;-67
2021/12/22 15:55:00;;;;;;;32.78;15.90;;;;;;;-144.43;100.00;64487.81;5112794;28;20053;-67
2021/12/22 15:57:26;;;;;;;32.67;15.50;;;;;;;-144.43;100.00;64487.81;5117924;27;20019;-67
2021/12/22 15:59:53;;;;;;;32.13;16.13;;;;;;;-144.43;100.00;64487.81;5133242;27;20023;-67
2021/12/22 16:02:18;;;;;;;31.17;15.20;;;;;;;-144.43;100.00;64487.81;5133036;27;20019;-67
2021/12/22 16:04:44;;;;;;;31.92;14.70;;;;;;;-144.43;100.00;64487.81;5133206;27;20087;-67
2021/12/22 16:07:09;;;;;;;33.17;14.98;;;;;;;-144.43;100.00;64487.81;5122438;27;20478;-67
2021/12/22 16:09:34;;;;;;;30.48;15.70;;;;;;;-144.43;100.00;64487.81;5113818;28;20019;-67
2021/12/22 16:12:00;;;;;;;32.85;15.35;;;;;;;-144.43;100.00;64487.81;5113316;28;20177;-67
2021/12/22 16:14:25;;;;;;;32.50;15.73;;;;;;;-144.43;100.00;64487.81;5112333;28;20023;-66
2021/12/22 16:16:51;;;;;;;34.08;16.08;;;;;;;-144.43;100.00;64487.81;5112006;28;20027;-67
2021/12/22 16:19:16;;;;;;;30.88;14.18;;;;;;;-144.43;100.00;64487.81;5113512;28;20517;-67
2021/12/22 16:21:42;;;;;;;32.28;15.38;;;;;;;-144.43;100.00;64487.81;5108175;28;20503;-67
2021/12/22 16:24:09;;;;;;;30.13;14.38;;;;;;;-144.43;100.00;64487.81;5112123;28;20050;-67
2021/12/22 16:26:35;;;;;;;30.67;14.75;;;;;;;-144.43;100.00;64487.81;5112069;28;20408;-67
2021/12/22 16:29:03;;;;;;;30.67;14.82;;;;;;;-144.43;100.00;64487.81;5109274;28;20567;-66
2021/12/22 16:31:28;;;;;;;28.45;14.55;;;;;;;-144.43;100.00;64487.81;5113119;28;20426;-68
2021/12/22 16:33:54;;;;;;;29.02;13.98;;;;;;;-144.43;100.00;64487.81;5112242;28;20066;-68
2021/12/22 16:36:19;;;;;;;29.55;14.63;;;;;;;-144.43;100.00;64487.81;5113019;28;20022;-67
2021/12/22 16:38:48;;;;;;;38.55;16.75;;;;;;;-144.43;100.00;64487.81;5113197;28;20027;-67
2021/12/22 16:41:17;;;;;;;32.28;14.85;;;;;;;-144.43;100.00;64487.81;5113072;28;20473;-67
2021/12/22 16:43:42;;;;;;;34.35;16.40;;;;;;;-144.43;100.00;64487.81;5111683;28;20066;-67
2021/12/22 16:46:08;;;;;;;32.90;14.90;;;;;;;-144.43;100.00;64487.81;5112732;28;20057;-66
2021/12/22 16:48:33;;;;;;;33.58;16.45;;;;;;;-144.43;100.00;64487.81;5111862;28;20027;-66
2021/12/22 16:50:59;;;;;;;33.53;15.50;;;;;;;-144.43;100.00;64487.81;5111562;28;20031;-66
2021/12/22 16:53:25;;;;;;;37.35;16.08;;;;;;;-144.43;100.00;64487.81;5111820;28;20105;-66
2021/12/22 16:55:51;;;;;;;39.00;17.30;;;;;;;-144.43;100.00;64487.81;5111513;28;20024;-66
2021/12/22 16:58:17;;;;;;;32.88;16.02;;;;;;;-144.43;100.00;64487.81;5113602;27;20031;-65
2021/12/22 17:00:42;;;;;;;33.30;15.85;;;;;;;-144.43;100.00;64487.81;5113197;28;20172;-66
2021/12/22 17:03:08;;;;;;;34.78;16.10;;;;;;;-144.43;100.00;64487.81;5100990;27;20075;-65
2021/12/22 17:05:33;;;;;;;33.13;16.05;;;;;;;-144.43;100.00;64487.81;5097668;27;20027;-65
2021/12/22 17:07:59;;;;;;;33.20;16.70;;;;;;;-144.43;100.00;64487.81;5117674;27;20027;-65
2021/12/22 17:10:27;;;;;;;33.17;15.77;;;;;;;-144.43;100.00;64487.81;5126718;27;20114;-65
2021/12/22 17:12:53;;;;;;;32.13;15.48;;;;;;;-144.43;100.00;64487.81;5111096;28;20036;-65
2021/12/22 17:15:18;;;;;;;39.00;16.63;;;;;;;-144.43;100.00;64487.81;5122953;27;20444;-65
2021/12/22 17:17:44;;;;;;;34.08;15.93;;;;;;;-144.43;100.00;64487.81;5122972;27;20149;-64
2021/12/22 17:20:13;;;;;;;33.30;16.50;;;;;;;-144.43;100.00;64487.81;5119261;27;20031;-65
2021/12/22 17:22:38;;;;;;;34.33;15.40;;;;;;;-144.43;100.00;64487.81;5097397;28;20378;-64
2021/12/22 17:25:07;;;;;;;31.48;15.07;;;;;;;-144.43;100.00;64487.81;5136348;27;20029;-64
2021/12/22 17:27:35;;;;;;;33.63;14.48;;;;;;;-144.43;100.00;64487.81;5136398;27;20041;-63
2021/12/22 17:30:01;;;;;;;36.38;15.80;;;;;;;-144.43;100.00;64487.81;5130967;27;20062;-63
2021/12/22 17:32:26;;;;;;;35.00;15.15;;;;;;;-144.43;100.00;64487.81;5141095;27;20055;-63
2021/12/22 17:34:51;;;;;;;31.88;14.57;;;;;;;-144.43;100.00;64487.81;5136677;27;20774;-63
2021/12/22 17:37:17;;;;;;;34.28;15.77;;;;;;;-144.43;100.00;64487.81;5128455;27;20370;-62
2021/12/22 17:39:45;;;;;;;34.63;14.80;;;;;;;-144.43;100.00;64487.81;5131913;27;20157;-63
2021/12/22 17:42:14;;;;;;;34.92;16.55;;;;;;;-144.43;100.00;64487.81;5131564;27;20411;-63
2021/12/22 17:44:39;;;;;;;33.45;15.20;;;;;;;-144.43;100.00;64487.81;5117432;28;20441;-63
2021/12/22 17:47:05;;;;;;;31.92;15.77;;;;;;;-144.43;100.00;64487.81;5140013;27;20050;-62
2021/12/22 17:49:30;;;;;;;36.45;15.27;;;;;;;-144.43;100.00;64487.81;5135983;27;20027;-62
2021/12/22 17:51:55;;;;;;;35.33;16.00;;;;;;;-144.43;100.00;64487.81;5134958;27;20054;-62
2021/12/22 17:54:21;;;;;;;35.20;16.90;;;;;;;-144.43;100.00;64487.81;5138537;27;20019;-62
2021/12/22 17:56:46;;;;;;;40.47;16.95;;;;;;;-144.43;100.00;64487.81;5135782;27;20019;-62
2021/12/22 17:59:11;;;;;;;40.28;17.33;;;;;;;-144.43;100.00;64487.81;5120247;27;20115;-62
2021/12/22 18:01:37;;;;;;;37.75;16.55;;;;;;;-144.43;100.00;64487.81;5134512;27;20385;-62
2021/12/22 18:04:03;;;;;;;34.28;16.42;;;;;;;-144.43;100.00;64487.81;5141368;27;20473;-62
2021/12/22 18:06:38;;;;;;;33.85;16.30;;;;;;;-144.43;100.00;64487.81;5122949;27;20019;-62
2021/12/22 18:09:06;;;;;;;39.78;17.50;;;;;;;-144.43;100.00;64487.81;5124692;27;20026;-62
2021/12/22 18:11:33;;;;;;;42.90;19.50;;;;;;;-144.43;100.00;64487.81;5106709;27;20039;-62
2021/12/22 18:13:59;;;;;;;42.17;19.13;;;;;;;-144.43;100.00;64487.81;5122921;27;20032;-63
2021/12/22 18:16:24;;;;;;;39.50;17.73;;;;;;;-144.43;100.00;64487.81;5123395;27;20026;-62
2021/12/22 18:18:50;;;;;;;40.03;18.13;;;;;;;-144.43;100.00;64487.81;5125243;27;20354;-62
2021/12/22 18:21:16;;;;;;;39.25;18.63;;;;;;;-144.43;100.00;64487.81;5118621;27;20016;-62
2021/12/22 18:23:42;;;;;;;37.95;18.02;;;;;;;-144.43;100.00;64487.81;5129754;27;20053;-62
2021/12/22 18:26:08;;;;;;;42.83;18.95;;;;;;;-144.43;100.00;64487.81;5121770;27;20495;-62
2021/12/22 18:28:33;;;;;;;46.10;19.02;;;;;;;-144.43;100.00;64487.81;5114016;27;20050;-62
2021/12/22 18:30:59;;;;;;;41.58;19.58;;;;;;;-144.43;100.00;64487.81;5114641;28;20106;-61
2021/12/22 18:33:24;;;;;;;45.92;20.58;;;;;;;-144.43;100.00;64487.81;5113587;27;20497;-61
2021/12/22 18:35:56;;;;;;;43.50;18.58;;;;;;;-144.43;100.00;64487.81;5125817;27;20063;-61
2021/12/22 18:38:25;;;;;;;44.85;19.77;;;;;;;-144.43;100.00;64487.81;5113853;28;20038;-61
2021/12/22 18:40:55;;;;;;;43.22;19.10;;;;;;;-144.43;100.00;64487.81;5114442;27;20520;-62
2021/12/22 18:43:23;;;;;;;41.08;18.80;;;;;;;-144.43;100.00;64487.81;5116996;27;20402;-62
2021/12/22 18:45:51;;;;;;;42.50;18.25;;;;;;;-144.43;100.00;64487.81;5117403;27;20050;-62
2021/12/22 18:48:20;;;;;;;39.63;18.10;;;;;;;-144.43;100.00;64487.81;5121009;27;20050;-62
2021/12/22 18:50:47;;;;;;;45.85;18.17;;;;;;;-144.43;100.00;64487.81;5116390;27;20027;-62
2021/12/22 18:53:14;;;;;;;39.58;19.05;;;;;;;-144.43;100.00;64487.81;5112967;28;20016;-61
2021/12/22 18:55:40;;;;;;;39.58;17.38;;;;;;;-144.43;100.00;64487.81;5114375;28;20458;-62
2021/12/22 18:58:05;;;;;;;42.05;18.85;;;;;;;-144.43;100.00;64487.81;5122108;27;20072;-62
2021/12/22 19:00:32;;;;;;;36.83;16.90;;;;;;;-144.43;100.00;64487.81;5134750;27;20048;-62
2021/12/22 19:02:57;;;;;;;41.05;18.17;;;;;;;-144.43;100.00;64487.81;5134715;27;20050;-62
2021/12/22 19:05:25;;;;;;;44.75;19.83;;;;;;;-144.43;100.00;64487.81;5133485;27;20055;-61
2021/12/22 19:07:51;;;;;;;39.22;18.15;;;;;;;-144.43;100.00;64487.81;5115371;27;20108;-60
2021/12/22 19:10:17;;;;;;;41.40;18.50;;;;;;;-144.43;100.00;64487.81;5114736;28;20122;-61
2021/12/22 19:12:43;;;;;;;35.03;17.48;;;;;;;-144.43;100.00;64487.81;5113364;28;20071;-61
2021/12/22 19:15:15;;;;;;;38.90;17.33;;;;;;;-144.43;100.00;64487.81;5126916;27;20440;-62
2021/12/22 19:17:41;;;;;;;36.90;17.80;;;;;;;-144.43;100.00;64487.81;5114668;28;20031;-61
2021/12/22 19:20:13;;;;;;;37.22;17.92;;;;;;;-144.43;100.00;64487.81;5130954;27;20084;-62
2021/12/22 19:22:38;;;;;;;40.95;17.80;;;;;;;-144.43;100.00;64487.81;5105300;28;20098;-61
2021/12/22 19:25:05;;;;;;;41.10;18.00;;;;;;;-144.43;100.00;64487.81;5112572;28;20430;-60
2021/12/22 19:27:31;;;;;;;41.10;19.05;;;;;;;-144.43;100.00;64487.81;5103428;28;20028;-62
2021/12/22 19:29:56;;;;;;;41.67;19.35;;;;;;;-144.43;100.00;64487.81;5113836;28;20412;-60
2021/12/22 19:32:22;;;;;;;40.63;18.27;;;;;;;-144.43;100.00;64487.81;5112432;28;20035;-62
2021/12/22 19:34:47;;;;;;;40.75;18.23;;;;;;;-144.43;100.00;64487.81;5112383;28;20572;-61
2021/12/22 19:37:14;;;;;;;39.67;19.40;;;;;;;-144.43;100.00;64487.81;5112017;28;20031;-62
2021/12/22 19:39:42;;;;;;;37.78;18.38;;;;;;;-144.43;100.00;64487.81;5112034;28;20051;-61
2021/12/22 19:42:12;;;;;;;42.17;19.02;;;;;;;-144.43;100.00;64487.81;5112238;28;20409;-62
2021/12/22 19:44:38;;;;;;;39.92;18.83;;;;;;;-144.43;100.00;64487.81;5113261;28;20019;-60
2021/12/22 19:47:04;;;;;;;40.58;18.08;;;;;;;-144.43;100.00;64487.81;5111714;28;20026;-60
2021/12/22 19:49:31;;;;;;;41.35;18.98;;;;;;;-144.43;100.00;64487.81;5117554;27;20027;-62
2021/12/22 19:51:57;;;;;;;35.97;19.30;;;;;;;-144.43;100.00;64487.81;5133188;27;20023;-62
2021/12/22 19:54:25;;;;;;;39.60;18.98;;;;;;;-144.43;100.00;64487.81;5132409;27;20054;-62
2021/12/22 19:56:50;;;;;;;43.05;18.63;;;;;;;-144.43;100.00;64487.81;5132484;27;20126;-63
2021/12/22 19:59:15;;;;;;;39.42;18.63;;;;;;;-144.43;100.00;64487.81;5132092;27;20059;-62
2021/12/22 20:01:41;;;;;;;35.28;18.45;;;;;;;-144.43;100.00;64487.81;5133276;27;20410;-60
2021/12/22 20:04:09;;;;;;;39.80;17.75;;;;;;;-144.43;100.00;64487.81;5096369;28;20028;-62
2021/12/22 20:06:35;;;;;;;40.92;19.15;;;;;;;-144.43;100.00;64487.81;5112623;28;20031;-62
2021/12/22 20:09:01;;;;;;;42.50;18.55;;;;;;;-144.43;100.00;64487.81;5094557;28;20500;-62
2021/12/22 20:11:31;;;;;;;39.80;18.48;;;;;;;-144.43;100.00;64487.81;5111374;28;20054;-61
2021/12/22 20:13:56;;;;;;;41.35;18.83;;;;;;;-144.43;100.00;64487.81;5112698;28;20098;-62
2021/12/22 20:16:28;;;;;;;38.05;18.60;;;;;;;-144.43;100.00;64487.81;5112230;28;20123;-63
2021/12/22 20:18:58;;;;;;;36.33;18.13;;;;;;;-144.43;100.00;64487.81;5113769;27;20030;-62
2021/12/22 20:21:30;;;;;;;40.17;18.08;;;;;;;-144.43;100.00;64487.81;5110374;28;20059;-63
2021/12/22 20:24:00;;;;;;;41.03;19.17;;;;;;;-144.43;100.00;64487.81;5111412;28;20020;-62
2021/12/22 20:26:26;;;;;;;38.60;18.90;;;;;;;-144.43;100.00;64487.81;5112206;28;20015;-61
2021/12/22 20:29:00;;;;;;;39.20;18.35;;;;;;;-144.43;100.00;64487.81;5111269;28;20028;-62
2021/12/22 20:31:29;;;;;;;42.22;18.80;;;;;;;-144.43;100.00;64487.81;5111208;28;20508;-62
2021/12/22 20:33:54;;;;;;;36.83;17.13;;;;;;;-144.43;100.00;64487.81;5100855;28;20038;-63
2021/12/22 20:36:20;;;;;;;38.22;18.00;;;;;;;-144.43;100.00;64487.81;5110780;28;20456;-61
2021/12/22 20:38:45;;;;;;;36.85;17.75;;;;;;;-144.43;100.00;64487.81;5110913;28;20019;-61
2021/12/22 20:41:11;;;;;;;37.45;17.63;;;;;;;-144.43;100.00;64487.81;5112472;28;20491;-62
2021/12/22 20:43:41;;;;;;;44.03;20.23;;;;;;;-144.43;100.00;64487.81;5111100;28;20059;-62
2021/12/22 20:46:12;;;;;;;42.08;18.65;;;;;;;-144.43;100.00;64487.81;5111071;28;20023;-63
2021/12/22 20:48:38;;;;;;;39.80;17.67;;;;;;;-144.43;100.00;64487.81;5112228;27;20035;-62
2021/12/22 20:51:06;;;;;;;41.97;19.05;;;;;;;-144.43;100.00;64487.81;5107395;28;20030;-62
2021/12/22 20:53:33;;;;;;;41.58;18.42;;;;;;;-144.43;100.00;64487.81;5122935;27;20034;-62
2021/12/22 20:55:58;;;;;;;38.65;18.30;;;;;;;-144.43;100.00;64487.81;5132512;27;20042;-63
2021/12/22 20:58:24;;;;;;;41.70;19.00;;;;;;;-144.43;100.00;64487.81;5132425;27;20023;-62
2021/12/22 21:00:50;;;;;;;37.55;18.52;;;;;;;-144.43;100.00;64487.81;5132737;27;20110;-62
2021/12/22 21:03:21;;;;;;;41.20;18.65;;;;;;;-144.43;100.00;64487.81;5102979;28;20024;-61
2021/12/22 21:05:47;;;;;;;41.60;19.02;;;;;;;-144.43;100.00;64487.81;5112105;28;20028;-62
2021/12/22 21:08:12;;;;;;;42.60;20.00;;;;;;;-144.43;100.00;64487.81;5118633;27;20020;-61
2021/12/22 21:10:37;;;;;;;37.75;18.25;;;;;;;-144.43;100.00;64487.81;5112516;28;20502;-63
2021/12/22 21:13:03;;;;;;;42.45;18.98;;;;;;;-144.43;100.00;64487.81;5120218;27;20435;-63
2021/12/22 21:15:31;;;;;;;40.92;18.52;;;;;;;-144.43;100.00;64487.81;5112514;27;20028;-62
2021/12/22 21:17:57;;;;;;;41.80;18.88;;;;;;;-144.43;100.00;64487.81;5114451;28;20023;-63
2021/12/22 21:20:29;;;;;;;41.25;18.63;;;;;;;-144.43;100.00;64487.81;5127080;27;20035;-63
2021/12/22 21:22:55;;;;;;;43.53;19.88;;;;;;;-144.43;100.00;64487.81;5110752;27;20015;-62
2021/12/22 21:25:24;;;;;;;43.53;18.63;;;;;;;-144.43;100.00;64487.81;5114540;28;20027;-62
2021/12/22 21:27:51;;;;;;;43.42;19.75;;;;;;;-144.43;100.00;64487.81;5094309;28;20387;-62
2021/12/22 21:30:17;;;;;;;43.55;19.27;;;;;;;-144.43;100.00;64487.81;5118044;28;20488;-62
2021/12/22 21:32:43;;;;;;;46.83;20.05;;;;;;;-144.43;100.00;64487.81;5133151;27;20034;-62
2021/12/22 21:35:09;;;;;;;42.08;19.20;;;;;;;-144.43;100.00;64487.81;5115382;28;20027;-63
2021/12/22 21:37:36;;;;;;;41.72;18.90;;;;;;;-144.43;100.00;64487.81;5116453;28;20446;-62
2021/12/22 21:40:03;;;;;;;39.97;19.27;;;;;;;-144.43;100.00;64487.81;5115394;28;20016;-63
2021/12/22 21:42:31;;;;;;;43.17;18.85;;;;;;;-144.43;100.00;64487.81;5115169;28;20024;-62
2021/12/22 21:45:00;;;;;;;38.83;19.20;;;;;;;-144.43;100.00;64487.81;5102725;28;20023;-62
2021/12/22 21:47:28;;;;;;;42.78;19.77;;;;;;;-144.43;100.00;64487.81;5116331;28;20099;-62
2021/12/22 21:49:57;;;;;;;41.38;19.80;;;;;;;-144.43;100.00;64487.81;5115161;28;20110;-62
2021/12/22 21:52:29;;;;;;;46.78;20.33;;;;;;;-144.43;100.00;64487.81;5116252;28;20031;-62
2021/12/22 21:54:57;;;;;;;47.53;20.15;;;;;;;-144.43;100.00;64487.81;5116230;28;20441;-59
2021/12/22 21:57:22;;;;;;;43.20;20.00;;;;;;;-144.43;100.00;64487.81;5118236;27;20022;-60
2021/12/22 21:59:48;;;;;;;43.80;18.77;;;;;;;-144.43;100.00;64487.81;5136873;27;20027;-61
2021/12/22 22:02:19;;;;;;;43.47;20.38;;;;;;;-144.43;100.00;64487.81;5136681;27;20031;-62
2021/12/22 22:04:48;;;;;;;41.88;20.48;;;;;;;-144.43;100.00;64487.81;5136681;27;20023;-62
2021/12/22 22:07:14;;;;;;;40.38;19.30;;;;;;;-144.43;100.00;64487.81;5124019;27;20505;-62
2021/12/22 22:09:40;;;;;;;41.88;19.05;;;;;;;-144.43;100.00;64487.81;5115981;28;20056;-62
2021/12/22 22:12:06;;;;;;;45.55;20.58;;;;;;;-144.43;100.00;64487.81;5114532;28;20039;-62
2021/12/22 22:14:31;;;;;;;42.50;18.55;;;;;;;-144.43;100.00;64487.81;5115999;28;20030;-62
2021/12/22 22:17:03;;;;;;;39.17;18.60;;;;;;;-144.43;100.00;64487.81;5114442;28;20139;-62
2021/12/22 22:19:41;;;;;;;42.72;19.80;;;;;;;-144.43;100.00;64487.81;5105903;27;20382;-62
2021/12/22 22:22:06;;;;;;;44.35;20.33;;;;;;;-144.43;100.00;64487.81;5115811;28;20026;-62
2021/12/22 22:24:32;;;;;;;43.60;18.95;;;;;;;-144.43;100.00;64487.81;5115761;28;20043;-62
2021/12/22 22:26:57;;;;;;;41.25;19.67;;;;;;;-144.43;100.00;64487.81;5122327;27;20019;-62
2021/12/22 22:29:23;;;;;;;46.72;19.20;;;;;;;-144.43;100.00;64487.81;5135008;27;20027;-62
2021/12/22 22:31:51;;;;;;;44.10;19.35;;;;;;;-144.43;100.00;64487.81;5135975;27;20088;-62
2021/12/22 22:34:16;;;;;;;44.80;19.80;;;;;;;-144.43;100.00;64487.81;5136150;27;20042;-61
2021/12/22 22:36:42;;;;;;;46.88;19.63;;;;;;;-144.43;100.00;64487.81;5134779;27;20493;-62
2021/12/22 22:39:19;;;;;;;43.45;19.10;;;;;;;-144.43;100.00;64487.81;5118050;27;20015;-62
2021/12/22 22:41:48;;;;;;;47.70;20.17;;;;;;;-144.43;100.00;64487.81;5134690;27;20015;-62
2021/12/22 22:44:13;;;;;;;40.13;19.27;;;;;;;-144.43;100.00;64487.81;5135315;27;20027;-62
2021/12/22 22:46:49;;;;;;;42.42;18.98;;;;;;;-144.43;100.00;64487.81;5135878;27;20027;-62
2021/12/22 22:49:14;;;;;;;42.97;19.52;;;;;;;-144.43;100.00;64487.81;5135741;27;20019;-61
2021/12/22 22:51:42;;;;;;;44.83;20.40;;;;;;;-144.43;100.00;64487.81;5134641;27;20072;-62
2021/12/22 22:54:08;;;;;;;46.85;19.63;;;;;;;-144.43;100.00;64487.81;5134500;27;20486;-60
2021/12/22 22:56:33;;;;;;;39.95;19.88;;;;;;;-144.43;100.00;64487.81;5135574;27;20023;-62
2021/12/22 22:59:02;;;;;;;41.95;19.77;;;;;;;-144.43;100.00;64487.81;5135560;27;20433;-61
2021/12/22 23:01:27;;;;;;;40.58;18.88;;;;;;;-144.43;100.00;64487.81;5135578;27;20076;-62
2021/12/22 23:03:52;;;;;;;42.38;20.00;;;;;;;-144.43;100.00;64487.81;5135627;27;20023;-62
2021/12/22 23:06:18;;;;;;;43.65;19.83;;;;;;;-144.43;100.00;64487.81;5130930;27;20071;-62
2021/12/22 23:08:46;;;;;;;45.28;19.58;;;;;;;-144.43;100.00;64487.81;5115309;28;20031;-62
2021/12/22 23:11:11;;;;;;;41.50;19.67;;;;;;;-144.43;100.00;64487.81;5103521;28;20128;-62
2021/12/22 23:13:38;;;;;;;42.85;19.15;;;;;;;-144.43;100.00;64487.81;5114806;28;20055;-62
2021/12/22 23:16:06;;;;;;;46.92;20.10;;;;;;;-144.43;100.00;64487.81;5114641;28;20024;-62
2021/12/22 23:18:32;;;;;;;41.22;19.45;;;;;;;-144.43;100.00;64487.81;5114622;27;20147;-62
2021/12/22 23:20:58;;;;;;;41.67;19.35;;;;;;;-144.43;100.00;64487.81;5113483;28;20511;-62
2021/12/22 23:23:25;;;;;;;43.47;19.50;;;;;;;-144.43;100.00;64487.81;5114573;28;20020;-62
2021/12/22 23:25:51;;;;;;;43.00;18.65;;;;;;;-144.43;100.00;64487.81;5114405;28;20076;-62
2021/12/22 23:28:17;;;;;;;40.60;18.75;;;;;;;-144.43;100.00;64487.81;5110779;28;20019;-61
2021/12/22 23:30:46;;;;;;;41.83;18.63;;;;;;;-144.43;100.00;64487.81;5114721;28;20071;-62
2021/12/22 23:33:17;;;;;;;40.80;18.35;;;;;;;-144.43;100.00;64487.81;5114341;28;20016;-62
2021/12/22 23:35:48;;;;;;;45.45;18.92;;;;;;;-144.43;100.00;64487.81;5114308;28;20049;-62
2021/12/22 23:51:34;;;;;;;39.88;19.13;;;;;;;-144.43;100.00;64487.81;5112993;28;20030;-62
2021/12/22 23:54:00;;;;;;;39.22;17.80;;;;;;;-144.43;100.00;64487.81;5114097;28;20024;-62
2021/12/22 23:56:25;;;;;;;44.58;19.52;;;;;;;-144.43;100.00;64487.81;5111854;28;20031;-62
2021/12/22 23:58:54;;;;;;;46.38;18.45;;;;;;;-144.43;100.00;64487.81;5129619;27;20019;-60
